< < Back
Terminal Aerodrome Forecast


Current Version              Previous Versions:   1  2  3  4  5  6  7  8  9  

Terminal Aerodrome Forecast

399
FTUS42 KFFC 012300 CCA
TAFFTY
TAF COR
KFTY 012344Z 0200/0224 10005KT P6SM SCT035 BKN080
     FM020700 07004KT 6SM BR BKN012
     FM020900 07004KT 5SM BR OVC009 PROB30 0212/0217 -SHRA
     FM021700 06005KT P6SM SCT025 BKN035=

Latest METAR

203
SAUS70 KWBC 011700 RRX
MTRFTY
METAR KFTY 020153Z AUTO 12003KT 10SM CLR 24/19 A3006 RMK AO2 SLP170
T02440194 TSNO


USA.gov is the U.S. government's official web portal to all federal, state and local government web resources and services.